createdAt,value
2017-01-06T00:00:08.748Z,0
2017-01-06T00:01:17.847Z,0
2017-01-06T00:02:26.980Z,0
2017-01-06T00:03:35.665Z,0
2017-01-06T00:04:44.757Z,0
2017-01-06T00:05:53.455Z,0
2017-01-06T00:07:02.926Z,0
2017-01-06T00:08:11.605Z,0
2017-01-06T00:09:21.085Z,0
2017-01-06T00:10:30.188Z,0
2017-01-06T00:11:39.670Z,0
2017-01-06T00:12:49.122Z,0
2017-01-06T00:13:57.860Z,0
2017-01-06T00:15:07.337Z,0
2017-01-06T00:16:16.408Z,0
2017-01-06T00:17:25.186Z,0
2017-01-06T00:18:34.241Z,0
2017-01-06T00:19:43.340Z,0
2017-01-06T00:20:52.091Z,0
2017-01-06T00:22:01.597Z,0
2017-01-06T00:23:10.788Z,0
2017-01-06T00:24:19.503Z,0
2017-01-06T00:25:28.592Z,0
2017-01-06T00:26:38.087Z,0
2017-01-06T00:27:47.570Z,0
2017-01-06T00:28:56.683Z,0
2017-01-06T00:30:05.388Z,0
2017-01-06T00:31:14.104Z,0
2017-01-06T00:32:23.554Z,0
2017-01-06T00:33:32.636Z,0
2017-01-06T00:34:41.735Z,0
2017-01-06T00:35:50.416Z,0
2017-01-06T00:36:59.149Z,0
2017-01-06T00:38:07.859Z,0
2017-01-06T00:39:17.008Z,0
2017-01-06T00:40:26.501Z,0
2017-01-06T00:41:35.601Z,0
2017-01-06T00:42:44.303Z,0
2017-01-06T00:43:53.377Z,0
2017-01-06T00:45:02.472Z,0
2017-01-06T00:46:12.343Z,0
2017-01-06T00:47:21.818Z,0
2017-01-06T00:48:31.352Z,0
2017-01-06T00:49:40.441Z,0
2017-01-06T00:50:49.157Z,0
2017-01-06T00:51:58.648Z,0
2017-01-06T00:53:07.349Z,0
2017-01-06T00:54:16.440Z,0
2017-01-06T00:55:25.233Z,0
2017-01-06T00:56:34.322Z,0
2017-01-06T00:57:43.467Z,0
2017-01-06T00:58:52.176Z,0
2017-01-06T01:00:00.870Z,0
2017-01-06T01:01:09.967Z,0
2017-01-06T01:02:19.055Z,0
2017-01-06T01:03:28.151Z,0
2017-01-06T01:04:37.214Z,0
2017-01-06T01:05:46.313Z,0
2017-01-06T01:06:55.429Z,0
2017-01-06T01:08:04.899Z,0
2017-01-06T01:09:13.655Z,0
2017-01-06T01:10:22.336Z,0
2017-01-06T01:11:31.869Z,0
2017-01-06T01:12:40.968Z,0
2017-01-06T01:13:49.658Z,0
2017-01-06T01:14:58.737Z,0
2017-01-06T01:16:08.242Z,0
2017-01-06T01:17:17.316Z,0
2017-01-06T01:18:26.055Z,0
2017-01-06T01:19:35.534Z,0
2017-01-06T01:20:45.026Z,0
2017-01-06T01:21:54.124Z,0
2017-01-06T01:23:03.611Z,0
2017-01-06T01:24:12.718Z,0
2017-01-06T01:25:21.411Z,0
2017-01-06T01:26:31.297Z,0
2017-01-06T01:27:40.836Z,0
2017-01-06T01:28:50.697Z,0
2017-01-06T01:29:59.820Z,0
2017-01-06T01:31:09.285Z,0
2017-01-06T01:32:19.239Z,0
2017-01-06T01:33:27.980Z,0
2017-01-06T01:34:37.086Z,0
2017-01-06T01:35:46.576Z,0
2017-01-06T01:36:55.674Z,0
2017-01-06T01:38:05.577Z,0
2017-01-06T01:39:14.299Z,0
2017-01-06T01:40:23.038Z,0
2017-01-06T01:41:32.542Z,0
2017-01-06T01:42:41.700Z,0
2017-01-06T01:43:50.837Z,0
2017-01-06T01:45:00.382Z,0
2017-01-06T01:46:09.137Z,0
2017-01-06T01:47:18.667Z,0
2017-01-06T01:48:27.806Z,0
2017-01-06T01:49:36.498Z,0
2017-01-06T01:50:45.613Z,0
2017-01-06T01:51:54.715Z,0
2017-01-06T01:53:04.272Z,0
2017-01-06T01:54:13.050Z,0
2017-01-06T01:55:22.142Z,0
2017-01-06T01:56:31.217Z,0
2017-01-06T01:57:40.737Z,0
2017-01-06T01:58:49.420Z,0
2017-01-06T01:59:58.519Z,0
2017-01-06T02:01:07.207Z,0
2017-01-06T02:02:17.069Z,0
2017-01-06T02:03:26.554Z,0
2017-01-06T02:04:35.249Z,0
2017-01-06T02:05:43.941Z,0
2017-01-06T02:06:52.647Z,0
2017-01-06T02:08:02.208Z,0
2017-01-06T02:09:11.326Z,0
2017-01-06T02:10:20.481Z,0
2017-01-06T02:11:30.759Z,0
2017-01-06T02:12:39.456Z,0
2017-01-06T02:13:48.538Z,0
2017-01-06T02:14:57.633Z,0
2017-01-06T02:16:06.411Z,0
2017-01-06T02:17:16.270Z,0
2017-01-06T02:18:25.038Z,0
2017-01-06T02:19:34.488Z,0
2017-01-06T02:20:43.602Z,0
2017-01-06T02:21:53.073Z,0
2017-01-06T02:23:02.544Z,0
2017-01-06T02:24:12.081Z,0
2017-01-06T02:25:20.802Z,0
2017-01-06T02:26:29.896Z,0
2017-01-06T02:27:38.581Z,0
2017-01-06T02:28:47.268Z,0
2017-01-06T02:29:56.714Z,0
2017-01-06T02:31:05.390Z,0
2017-01-06T02:32:14.111Z,0
2017-01-06T02:33:23.999Z,0
2017-01-06T02:34:33.085Z,0
2017-01-06T02:35:42.163Z,0
2017-01-06T02:36:51.301Z,0
2017-01-06T02:38:00.026Z,0
2017-01-06T02:39:08.726Z,0
2017-01-06T02:40:17.811Z,0
2017-01-06T02:41:26.902Z,0
2017-01-06T02:42:36.052Z,0
2017-01-06T02:43:45.161Z,0
2017-01-06T02:44:53.896Z,0
2017-01-06T02:46:02.636Z,0
2017-01-06T02:47:11.318Z,0
2017-01-06T02:48:20.815Z,0
2017-01-06T02:49:30.313Z,0
2017-01-06T02:50:39.902Z,0
2017-01-06T02:51:49.801Z,0
2017-01-06T02:52:58.900Z,0
2017-01-06T02:54:08.377Z,0
2017-01-06T02:55:17.479Z,0
2017-01-06T02:56:26.600Z,0
2017-01-06T02:57:35.763Z,0
2017-01-06T02:58:44.847Z,0
2017-01-06T02:59:53.574Z,0
2017-01-06T03:01:03.082Z,0
2017-01-06T03:02:11.824Z,0
2017-01-06T03:03:20.507Z,0
2017-01-06T03:04:29.237Z,0
2017-01-06T03:05:39.060Z,0
2017-01-06T03:06:47.741Z,0
2017-01-06T03:07:56.839Z,0
2017-01-06T03:09:05.564Z,0
2017-01-06T03:10:14.261Z,0
2017-01-06T03:11:23.030Z,0
2017-01-06T03:12:32.928Z,0
2017-01-06T03:13:42.111Z,0
2017-01-06T03:14:51.355Z,0
2017-01-06T03:16:00.526Z,0
2017-01-06T03:17:09.232Z,0
2017-01-06T03:18:17.967Z,0
2017-01-06T03:19:27.101Z,0
2017-01-06T03:20:37.030Z,0
2017-01-06T03:21:46.096Z,0
2017-01-06T03:22:55.178Z,0
2017-01-06T03:24:04.632Z,0
2017-01-06T03:25:13.755Z,0
2017-01-06T03:26:23.241Z,0
2017-01-06T03:27:31.936Z,0
2017-01-06T03:28:41.478Z,0
2017-01-06T03:29:50.581Z,0
2017-01-06T03:31:00.444Z,0
2017-01-06T03:32:09.525Z,0
2017-01-06T03:33:18.654Z,0
2017-01-06T03:34:27.750Z,0
2017-01-06T03:35:36.430Z,0
2017-01-06T03:36:45.117Z,0
2017-01-06T03:37:53.838Z,0
2017-01-06T03:39:02.962Z,0
2017-01-06T03:40:12.092Z,0
2017-01-06T03:41:21.201Z,0
2017-01-06T03:42:30.744Z,0
2017-01-06T03:43:39.431Z,0
2017-01-06T03:44:48.542Z,0
2017-01-06T03:45:57.744Z,0
2017-01-06T03:47:06.488Z,0
2017-01-06T03:48:15.216Z,0
2017-01-06T03:49:24.726Z,0
2017-01-06T03:50:33.427Z,0
2017-01-06T03:51:42.146Z,0
2017-01-06T03:52:51.266Z,0
2017-01-06T03:54:00.776Z,0
2017-01-06T03:55:09.469Z,0
2017-01-06T03:56:18.223Z,0
2017-01-06T03:57:27.484Z,0
2017-01-06T03:58:36.652Z,0
2017-01-06T03:59:46.180Z,0
2017-01-06T04:00:56.461Z,0
2017-01-06T04:02:06.381Z,0
2017-01-06T04:03:15.560Z,0
2017-01-06T04:04:25.076Z,0
2017-01-06T04:05:33.789Z,0
2017-01-06T04:06:42.928Z,0
2017-01-06T04:07:51.622Z,0
2017-01-06T04:09:00.737Z,0
2017-01-06T04:10:10.236Z,0
2017-01-06T04:11:19.368Z,0
2017-01-06T04:12:28.865Z,0
2017-01-06T04:13:37.969Z,0
2017-01-06T04:14:47.508Z,0
2017-01-06T04:15:56.655Z,0
2017-01-06T04:17:06.190Z,0
2017-01-06T04:18:15.258Z,0
2017-01-06T04:19:24.387Z,0
2017-01-06T04:20:33.520Z,0
2017-01-06T04:21:43.006Z,0
2017-01-06T04:22:52.128Z,0
2017-01-06T04:24:01.626Z,0
2017-01-06T04:25:10.338Z,0
2017-01-06T04:26:19.446Z,0
2017-01-06T04:27:29.362Z,0
2017-01-06T04:28:38.506Z,0
2017-01-06T04:29:47.638Z,0
2017-01-06T04:30:57.120Z,0
2017-01-06T04:32:06.601Z,0
2017-01-06T04:33:15.750Z,0
2017-01-06T04:34:25.730Z,0
2017-01-06T04:35:34.412Z,0
2017-01-06T04:36:43.945Z,0
2017-01-06T04:37:53.047Z,0
2017-01-06T04:39:02.160Z,0
2017-01-06T04:40:11.666Z,0
2017-01-06T04:41:20.734Z,0
2017-01-06T04:42:29.878Z,0
2017-01-06T04:43:39.033Z,0
2017-01-06T04:44:48.576Z,0
2017-01-06T04:45:58.496Z,0
2017-01-06T04:47:07.367Z,0
2017-01-06T04:48:16.889Z,0
2017-01-06T04:49:25.595Z,0
2017-01-06T04:50:34.747Z,0
2017-01-06T04:51:43.850Z,0
2017-01-06T04:52:52.550Z,0
2017-01-06T04:54:02.470Z,0
2017-01-06T04:55:11.540Z,0
2017-01-06T04:56:20.638Z,0
2017-01-06T04:57:29.380Z,0
2017-01-06T04:58:38.494Z,0
2017-01-06T04:59:48.019Z,0
2017-01-06T05:00:56.700Z,0
2017-01-06T05:02:05.766Z,0
2017-01-06T05:03:15.274Z,0
2017-01-06T05:04:24.790Z,0
2017-01-06T05:05:33.987Z,0
2017-01-06T05:06:43.128Z,0
2017-01-06T05:07:51.826Z,0
2017-01-06T05:09:00.501Z,0
2017-01-06T05:10:10.005Z,0
2017-01-06T05:11:18.726Z,0
2017-01-06T05:12:27.840Z,0
2017-01-06T05:13:36.515Z,0
2017-01-06T05:14:45.626Z,0
2017-01-06T05:15:54.700Z,0
2017-01-06T05:17:03.826Z,0
2017-01-06T05:18:12.943Z,0
2017-01-06T05:19:22.032Z,0
2017-01-06T05:20:30.717Z,0
2017-01-06T05:21:39.814Z,0
2017-01-06T05:22:48.529Z,0
2017-01-06T05:23:57.280Z,0
2017-01-06T05:25:06.345Z,0
2017-01-06T05:26:15.451Z,0
2017-01-06T05:27:24.944Z,0
2017-01-06T05:28:34.434Z,0
2017-01-06T05:29:43.512Z,0
2017-01-06T05:30:52.213Z,0
2017-01-06T05:32:01.309Z,0
2017-01-06T05:33:10.023Z,0
2017-01-06T05:34:18.724Z,0
2017-01-06T05:35:27.431Z,0
2017-01-06T05:36:36.532Z,0
2017-01-06T05:37:45.650Z,0
2017-01-06T05:38:54.743Z,0
2017-01-06T05:40:03.446Z,0
2017-01-06T05:41:13.353Z,0
2017-01-06T05:42:22.877Z,0
2017-01-06T05:43:32.339Z,0
2017-01-06T05:44:41.058Z,0
2017-01-06T05:45:50.960Z,0
2017-01-06T05:46:59.649Z,0
2017-01-06T05:48:08.767Z,0
2017-01-06T05:49:17.913Z,0
2017-01-06T05:50:27.043Z,0
2017-01-06T05:51:36.950Z,0
2017-01-06T05:52:46.498Z,0
2017-01-06T05:53:55.626Z,0
2017-01-06T05:55:04.779Z,0
2017-01-06T05:56:13.863Z,0
2017-01-06T05:57:23.329Z,0
2017-01-06T05:58:32.829Z,0
2017-01-06T05:59:41.967Z,0
2017-01-06T06:00:51.104Z,0
2017-01-06T06:02:00.199Z,0
2017-01-06T06:03:09.311Z,0
2017-01-06T06:04:18.390Z,0
2017-01-06T06:05:27.163Z,0
2017-01-06T06:06:36.705Z,0
2017-01-06T06:07:45.828Z,0
2017-01-06T06:08:54.970Z,0
2017-01-06T06:10:04.474Z,0
2017-01-06T06:11:13.225Z,0
2017-01-06T06:12:22.699Z,0
2017-01-06T06:13:32.609Z,0
2017-01-06T06:14:41.339Z,0
2017-01-06T06:15:50.426Z,0
2017-01-06T06:16:59.124Z,0
2017-01-06T06:18:08.674Z,4
2017-01-06T06:19:18.238Z,4
2017-01-06T06:20:26.966Z,4
2017-01-06T06:21:35.684Z,4
2017-01-06T06:22:44.805Z,4
2017-01-06T06:23:53.939Z,4
2017-01-06T06:25:03.832Z,4
2017-01-06T06:26:12.942Z,4
2017-01-06T06:27:21.607Z,4
2017-01-06T06:28:30.327Z,4
2017-01-06T06:29:39.836Z,4
2017-01-06T06:30:49.716Z,4
2017-01-06T06:31:59.191Z,4
2017-01-06T06:33:08.695Z,4
2017-01-06T06:34:17.440Z,4
2017-01-06T06:35:26.537Z,4
2017-01-06T06:36:35.256Z,4
2017-01-06T06:37:44.744Z,4
2017-01-06T06:38:53.881Z,4
2017-01-06T06:40:03.004Z,4
2017-01-06T06:41:12.460Z,4
2017-01-06T06:42:21.207Z,4
2017-01-06T06:43:29.934Z,4
2017-01-06T06:44:38.631Z,4
2017-01-06T06:45:48.106Z,4
2017-01-06T06:46:56.857Z,4
2017-01-06T06:48:05.565Z,4
2017-01-06T06:49:15.101Z,4
2017-01-06T06:50:24.217Z,4
2017-01-06T06:51:33.743Z,4
2017-01-06T06:52:42.436Z,8
2017-01-06T06:53:51.927Z,4
2017-01-06T06:55:01.043Z,4
2017-01-06T06:56:10.184Z,4
2017-01-06T06:57:18.926Z,0
2017-01-06T06:58:28.450Z,0
2017-01-06T06:59:37.914Z,0
2017-01-06T07:00:47.050Z,4
2017-01-06T07:01:55.746Z,4
2017-01-06T07:03:04.813Z,4
2017-01-06T07:04:14.339Z,0
2017-01-06T07:05:23.154Z,4
2017-01-06T07:06:32.278Z,4
2017-01-06T07:07:41.045Z,8
2017-01-06T07:08:50.148Z,4
2017-01-06T07:09:59.242Z,8
2017-01-06T07:11:08.691Z,8
2017-01-06T07:12:17.385Z,8
2017-01-06T07:13:38.850Z,12
2017-01-06T07:14:48.022Z,12
2017-01-06T07:15:57.938Z,12
2017-01-06T07:17:07.083Z,12
2017-01-06T07:18:16.216Z,16
2017-01-06T07:19:25.302Z,16
2017-01-06T07:20:34.127Z,20
2017-01-06T07:21:43.611Z,24
2017-01-06T07:22:52.363Z,24
2017-01-06T07:24:01.445Z,28
2017-01-06T07:25:10.919Z,32
2017-01-06T07:26:19.999Z,32
2017-01-06T07:27:29.482Z,36
2017-01-06T07:28:38.577Z,36
2017-01-06T07:29:48.047Z,40
2017-01-06T07:30:57.498Z,44
2017-01-06T07:32:07.356Z,48
2017-01-06T07:33:16.085Z,52
2017-01-06T07:34:24.770Z,56
2017-01-06T07:35:34.258Z,64
2017-01-06T07:36:44.516Z,68
2017-01-06T07:37:53.628Z,76
2017-01-06T07:39:02.357Z,84
2017-01-06T07:40:11.078Z,88
2017-01-06T07:41:20.181Z,92
2017-01-06T07:42:28.898Z,100
2017-01-06T07:43:37.615Z,104
2017-01-06T07:44:47.121Z,116
2017-01-06T07:45:56.515Z,120
2017-01-06T07:47:05.610Z,124
2017-01-06T07:48:14.307Z,132
2017-01-06T07:49:23.806Z,140
2017-01-06T07:50:32.543Z,152
2017-01-06T07:51:41.257Z,160
2017-01-06T07:52:50.758Z,168
2017-01-06T07:54:00.245Z,184
2017-01-06T07:55:09.347Z,192
2017-01-06T07:56:18.837Z,200
2017-01-06T07:57:27.926Z,208
2017-01-06T07:58:37.427Z,220
2017-01-06T07:59:46.188Z,232
2017-01-06T08:00:55.621Z,248
2017-01-06T08:02:05.136Z,272
2017-01-06T08:03:14.607Z,296
2017-01-06T08:04:23.705Z,320
2017-01-06T08:05:32.459Z,340
2017-01-06T08:06:41.850Z,348
2017-01-06T08:07:50.979Z,360
2017-01-06T08:09:00.088Z,376
2017-01-06T08:10:08.820Z,396
2017-01-06T08:11:17.961Z,416
2017-01-06T08:12:27.039Z,440
2017-01-06T08:13:36.187Z,456
2017-01-06T08:14:44.923Z,424
2017-01-06T08:15:54.082Z,420
2017-01-06T08:17:03.218Z,432
2017-01-06T08:18:12.704Z,444
2017-01-06T08:19:21.414Z,436
2017-01-06T08:20:30.513Z,424
2017-01-06T08:21:40.059Z,428
2017-01-06T08:22:49.183Z,432
2017-01-06T08:23:57.897Z,436
2017-01-06T08:25:07.078Z,440
2017-01-06T08:26:16.610Z,456
2017-01-06T08:27:25.721Z,496
2017-01-06T08:28:34.855Z,516
2017-01-06T08:29:44.393Z,492
2017-01-06T08:30:53.116Z,520
2017-01-06T08:32:02.623Z,568
2017-01-06T08:33:11.376Z,600
2017-01-06T08:34:20.117Z,676
2017-01-06T08:35:29.201Z,732
2017-01-06T08:36:38.679Z,740
2017-01-06T08:37:47.790Z,708
2017-01-06T08:38:57.287Z,644
2017-01-06T08:40:06.002Z,612
2017-01-06T08:41:15.514Z,572
2017-01-06T08:42:24.595Z,540
2017-01-06T08:43:33.673Z,528
2017-01-06T08:44:43.166Z,524
2017-01-06T08:45:51.906Z,548
2017-01-06T08:47:00.619Z,548
2017-01-06T08:48:09.366Z,548
2017-01-06T08:49:18.094Z,548
2017-01-06T08:50:27.190Z,552
2017-01-06T08:51:36.270Z,552
2017-01-06T08:52:45.402Z,548
2017-01-06T08:53:54.910Z,544
2017-01-06T08:55:04.411Z,536
2017-01-06T08:56:13.868Z,580
2017-01-06T08:57:22.585Z,640
2017-01-06T08:58:32.473Z,620
2017-01-06T08:59:41.601Z,604
2017-01-06T09:00:50.295Z,556
2017-01-06T09:01:59.077Z,536
2017-01-06T09:03:08.218Z,532
2017-01-06T09:04:17.331Z,572
2017-01-06T09:05:26.824Z,624
2017-01-06T09:06:35.937Z,608
2017-01-06T09:07:45.468Z,536
2017-01-06T09:08:54.188Z,512
2017-01-06T09:10:03.302Z,516
2017-01-06T09:11:12.426Z,532
2017-01-06T09:12:21.157Z,596
2017-01-06T09:13:30.668Z,648
2017-01-06T09:14:40.974Z,636
2017-01-06T09:15:50.517Z,612
2017-01-06T09:16:59.255Z,636
2017-01-06T09:18:08.341Z,728
2017-01-06T09:19:17.416Z,812
2017-01-06T09:20:26.918Z,816
2017-01-06T09:21:35.628Z,764
2017-01-06T09:22:45.539Z,708
2017-01-06T09:23:54.646Z,676
2017-01-06T09:25:03.770Z,644
2017-01-06T09:26:12.906Z,616
2017-01-06T09:27:22.010Z,604
2017-01-06T09:28:31.075Z,600
2017-01-06T09:29:40.556Z,592
2017-01-06T09:30:49.653Z,564
2017-01-06T09:31:59.168Z,516
2017-01-06T09:33:07.901Z,512
2017-01-06T09:34:17.815Z,544
2017-01-06T09:35:26.512Z,592
2017-01-06T09:36:35.621Z,648
2017-01-06T09:37:44.759Z,720
2017-01-06T09:38:53.880Z,784
2017-01-06T09:40:02.624Z,780
2017-01-06T09:41:11.350Z,732
2017-01-06T09:42:20.057Z,720
2017-01-06T09:43:28.744Z,720
2017-01-06T09:44:37.840Z,720
2017-01-06T09:45:46.533Z,712
2017-01-06T09:46:55.647Z,692
2017-01-06T09:48:04.731Z,684
2017-01-06T09:49:13.813Z,668
2017-01-06T09:50:22.909Z,628
2017-01-06T09:51:31.623Z,636
2017-01-06T09:52:40.363Z,656
2017-01-06T09:53:49.109Z,644
2017-01-06T09:54:57.864Z,616
2017-01-06T09:56:07.014Z,576
2017-01-06T09:57:15.741Z,588
2017-01-06T09:58:25.244Z,556
2017-01-06T09:59:34.328Z,564
2017-01-06T10:00:43.458Z,588
2017-01-06T10:01:52.971Z,604
2017-01-06T10:03:02.484Z,608
2017-01-06T10:04:11.192Z,604
2017-01-06T10:05:21.061Z,612
2017-01-06T10:06:29.760Z,620
2017-01-06T10:07:38.911Z,640
2017-01-06T10:08:48.039Z,684
2017-01-06T10:09:57.172Z,708
2017-01-06T10:11:05.904Z,708
2017-01-06T10:12:14.613Z,676
2017-01-06T10:13:23.734Z,660
2017-01-06T10:14:32.417Z,652
2017-01-06T10:15:41.497Z,664
2017-01-06T10:16:50.214Z,684
2017-01-06T10:17:58.906Z,708
2017-01-06T10:19:08.800Z,748
2017-01-06T10:20:17.519Z,808
2017-01-06T10:21:27.286Z,876
2017-01-06T10:22:37.187Z,924
2017-01-06T10:23:46.666Z,968
2017-01-06T10:24:55.827Z,1032
2017-01-06T10:26:05.324Z,1056
2017-01-06T10:27:14.876Z,1060
2017-01-06T10:28:24.000Z,980
2017-01-06T10:29:32.711Z,976
2017-01-06T10:30:41.805Z,992
2017-01-06T10:31:50.541Z,1036
2017-01-06T10:32:59.642Z,1072
2017-01-06T10:34:09.920Z,1096
2017-01-06T10:35:19.021Z,1072
2017-01-06T10:36:28.529Z,1048
2017-01-06T10:37:37.619Z,1028
2017-01-06T10:38:46.736Z,1056
2017-01-06T10:39:55.896Z,1104
2017-01-06T10:41:04.600Z,1124
2017-01-06T10:42:14.500Z,1128
2017-01-06T10:43:23.637Z,1120
2017-01-06T10:44:33.105Z,1116
2017-01-06T10:45:42.194Z,1044
2017-01-06T10:46:51.714Z,932
2017-01-06T10:48:00.453Z,880
2017-01-06T10:49:09.549Z,788
2017-01-06T10:50:18.308Z,756
2017-01-06T10:51:27.860Z,736
2017-01-06T10:52:37.744Z,760
2017-01-06T10:53:47.285Z,812
2017-01-06T10:54:56.018Z,892
2017-01-06T10:56:05.529Z,884
2017-01-06T10:57:15.056Z,860
2017-01-06T10:58:24.172Z,796
2017-01-06T10:59:33.276Z,720
2017-01-06T11:00:42.366Z,668
2017-01-06T11:01:51.442Z,628
2017-01-06T11:03:00.559Z,632
2017-01-06T11:04:09.296Z,656
2017-01-06T11:05:17.990Z,668
2017-01-06T11:06:27.488Z,692
2017-01-06T11:07:36.654Z,708
2017-01-06T11:08:45.401Z,700
2017-01-06T11:09:54.126Z,684
2017-01-06T11:11:03.221Z,704
2017-01-06T11:12:12.364Z,736
2017-01-06T11:13:21.092Z,800
2017-01-06T11:14:30.597Z,812
2017-01-06T11:15:40.090Z,792
2017-01-06T11:16:49.593Z,788
2017-01-06T11:17:59.863Z,828
2017-01-06T11:19:08.969Z,836
2017-01-06T11:20:18.083Z,840
2017-01-06T11:21:27.550Z,872
2017-01-06T11:22:36.672Z,888
2017-01-06T11:23:45.401Z,916
2017-01-06T11:24:54.483Z,952
2017-01-06T11:26:03.560Z,984
2017-01-06T11:27:12.664Z,1004
2017-01-06T11:28:21.380Z,992
2017-01-06T11:29:30.103Z,928
2017-01-06T11:30:39.576Z,876
2017-01-06T11:31:48.351Z,852
2017-01-06T11:32:57.443Z,852
2017-01-06T11:34:06.547Z,868
2017-01-06T11:35:15.252Z,872
2017-01-06T11:36:24.385Z,872
2017-01-06T11:37:33.183Z,876
2017-01-06T11:38:42.308Z,884
2017-01-06T11:39:51.089Z,888
2017-01-06T11:41:00.602Z,884
2017-01-06T11:42:10.150Z,880
2017-01-06T11:43:18.879Z,880
2017-01-06T11:44:28.053Z,868
2017-01-06T11:45:37.570Z,840
2017-01-06T11:46:47.832Z,840
2017-01-06T11:47:56.948Z,856
2017-01-06T11:49:06.439Z,864
2017-01-06T11:50:15.614Z,852
2017-01-06T11:51:24.350Z,864
2017-01-06T11:52:33.084Z,852
2017-01-06T11:53:41.795Z,832
2017-01-06T11:54:50.514Z,828
2017-01-06T11:56:00.043Z,796
2017-01-06T11:57:09.155Z,780
2017-01-06T11:58:17.866Z,764
2017-01-06T11:59:27.371Z,760
2017-01-06T12:00:36.107Z,764
2017-01-06T12:01:44.829Z,756
2017-01-06T12:02:53.932Z,740
2017-01-06T12:04:03.434Z,704
2017-01-06T12:05:13.343Z,680
2017-01-06T12:06:22.859Z,660
2017-01-06T12:07:33.134Z,644
2017-01-06T12:08:41.831Z,632
2017-01-06T12:09:51.332Z,624
2017-01-06T12:11:00.854Z,616
2017-01-06T12:12:09.977Z,604
2017-01-06T12:13:18.695Z,596
2017-01-06T12:14:27.403Z,592
2017-01-06T12:15:36.107Z,584
2017-01-06T12:16:45.608Z,572
2017-01-06T12:17:54.759Z,580
2017-01-06T12:19:03.900Z,560
2017-01-06T12:20:12.667Z,556
2017-01-06T12:21:22.144Z,556
2017-01-06T12:22:32.031Z,560
2017-01-06T12:23:41.980Z,592
2017-01-06T12:24:50.700Z,592
2017-01-06T12:25:59.495Z,592
2017-01-06T12:27:09.383Z,592
2017-01-06T12:28:18.881Z,588
2017-01-06T12:29:28.019Z,572
2017-01-06T12:30:36.773Z,576
2017-01-06T12:31:45.506Z,584
2017-01-06T12:32:54.228Z,608
2017-01-06T12:34:02.927Z,600
2017-01-06T12:35:12.047Z,600
2017-01-06T12:36:21.620Z,596
2017-01-06T12:37:31.104Z,596
2017-01-06T12:38:39.804Z,592
2017-01-06T12:39:48.896Z,588
2017-01-06T12:40:57.606Z,588
2017-01-06T12:42:06.351Z,588
2017-01-06T12:43:15.458Z,584
2017-01-06T12:44:24.226Z,588
2017-01-06T12:45:33.342Z,592
2017-01-06T12:46:42.132Z,596
2017-01-06T12:47:51.264Z,592
2017-01-06T12:49:00.356Z,584
2017-01-06T12:50:09.877Z,580
2017-01-06T12:51:19.002Z,580
2017-01-06T12:52:27.732Z,580
2017-01-06T12:53:36.886Z,576
2017-01-06T12:54:45.613Z,572
2017-01-06T12:55:54.720Z,572
2017-01-06T12:57:03.451Z,568
2017-01-06T12:58:12.932Z,560
2017-01-06T12:59:22.121Z,560
2017-01-06T13:00:30.827Z,556
2017-01-06T13:01:40.368Z,556
2017-01-06T13:02:49.103Z,552
2017-01-06T13:03:58.201Z,552
2017-01-06T13:05:07.754Z,556
2017-01-06T13:06:16.503Z,552
2017-01-06T13:07:26.466Z,548
2017-01-06T13:08:35.568Z,548
2017-01-06T13:09:44.876Z,548
2017-01-06T13:10:54.785Z,544
2017-01-06T13:12:03.896Z,544
2017-01-06T13:13:12.627Z,540
2017-01-06T13:14:21.648Z,544
2017-01-06T13:15:30.418Z,544
2017-01-06T13:16:39.238Z,544
2017-01-06T13:17:47.985Z,544
2017-01-06T13:18:56.701Z,540
2017-01-06T13:20:06.229Z,536
2017-01-06T13:21:15.333Z,540
2017-01-06T13:22:24.823Z,536
2017-01-06T13:23:33.971Z,540
2017-01-06T13:24:43.124Z,536
2017-01-06T13:25:51.824Z,536
2017-01-06T13:27:01.002Z,536
2017-01-06T13:28:09.756Z,536
2017-01-06T13:29:19.675Z,532
2017-01-06T13:30:29.586Z,536
2017-01-06T13:31:38.693Z,536
2017-01-06T13:32:47.432Z,536
2017-01-06T13:33:56.572Z,540
2017-01-06T13:35:05.698Z,544
2017-01-06T13:36:15.247Z,548
2017-01-06T13:37:24.329Z,556
2017-01-06T13:38:33.074Z,564
2017-01-06T13:39:42.991Z,564
2017-01-06T13:40:51.701Z,560
2017-01-06T13:42:00.793Z,564
2017-01-06T13:43:09.934Z,564
2017-01-06T13:44:18.631Z,564
2017-01-06T13:45:27.366Z,560
2017-01-06T13:46:36.450Z,560
2017-01-06T13:47:45.938Z,552
2017-01-06T13:48:55.094Z,544
2017-01-06T13:50:03.787Z,540
2017-01-06T13:51:12.496Z,536
2017-01-06T13:52:21.630Z,532
2017-01-06T13:53:31.130Z,528
2017-01-06T13:54:40.600Z,516
2017-01-06T13:55:49.404Z,512
2017-01-06T13:56:58.486Z,508
2017-01-06T13:58:07.615Z,508
2017-01-06T13:59:17.138Z,504
2017-01-06T14:00:26.272Z,508
2017-01-06T14:01:35.796Z,504
2017-01-06T14:02:45.312Z,500
2017-01-06T14:03:54.387Z,500
2017-01-06T14:05:03.894Z,504
2017-01-06T14:06:13.799Z,500
2017-01-06T14:07:23.674Z,492
2017-01-06T14:08:32.769Z,492
2017-01-06T14:09:41.856Z,488
2017-01-06T14:10:50.960Z,484
2017-01-06T14:12:00.842Z,488
2017-01-06T14:13:10.322Z,488
2017-01-06T14:14:19.855Z,492
2017-01-06T14:15:28.972Z,492
2017-01-06T14:16:38.915Z,488
2017-01-06T14:17:48.094Z,488
2017-01-06T14:18:56.829Z,484
2017-01-06T14:20:06.010Z,476
2017-01-06T14:21:15.141Z,472
2017-01-06T14:22:24.261Z,460
2017-01-06T14:23:33.455Z,456
2017-01-06T14:24:42.567Z,460
2017-01-06T14:25:51.662Z,460
2017-01-06T14:27:00.755Z,456
2017-01-06T14:28:09.987Z,440
2017-01-06T14:29:19.540Z,420
2017-01-06T14:30:28.311Z,400
2017-01-06T14:31:37.939Z,384
2017-01-06T14:32:46.695Z,364
2017-01-06T14:33:55.833Z,352
2017-01-06T14:35:04.995Z,340
2017-01-06T14:36:14.521Z,324
2017-01-06T14:37:23.717Z,316
2017-01-06T14:38:33.334Z,308
2017-01-06T14:39:42.096Z,300
2017-01-06T14:40:50.891Z,292
2017-01-06T14:42:00.067Z,284
2017-01-06T14:43:09.566Z,280
2017-01-06T14:44:18.367Z,280
2017-01-06T14:45:27.094Z,280
2017-01-06T14:46:36.612Z,280
2017-01-06T14:47:45.697Z,280
2017-01-06T14:48:54.879Z,276
2017-01-06T14:50:03.581Z,280
2017-01-06T14:51:13.079Z,272
2017-01-06T14:52:22.228Z,268
2017-01-06T14:53:30.987Z,268
2017-01-06T14:54:40.136Z,268
2017-01-06T14:55:49.652Z,264
2017-01-06T14:56:58.745Z,264
2017-01-06T14:58:07.923Z,264
2017-01-06T14:59:17.806Z,260
2017-01-06T15:00:26.980Z,256
2017-01-06T15:01:35.717Z,248
2017-01-06T15:02:45.642Z,244
2017-01-06T15:03:54.372Z,240
2017-01-06T15:05:03.858Z,240
2017-01-06T15:06:12.564Z,236
2017-01-06T15:07:21.275Z,236
2017-01-06T15:08:30.452Z,232
2017-01-06T15:09:39.260Z,228
2017-01-06T15:10:47.980Z,224
2017-01-06T15:11:56.702Z,220
2017-01-06T15:13:05.470Z,212
2017-01-06T15:14:14.198Z,208
2017-01-06T15:15:23.709Z,204
2017-01-06T15:16:32.933Z,196
2017-01-06T15:17:42.416Z,192
2017-01-06T15:18:51.157Z,184
2017-01-06T15:20:00.296Z,176
2017-01-06T15:21:09.818Z,172
2017-01-06T15:22:19.718Z,164
2017-01-06T15:23:29.233Z,156
2017-01-06T15:24:38.828Z,148
2017-01-06T15:25:47.950Z,140
2017-01-06T15:26:57.083Z,136
2017-01-06T15:28:06.267Z,128
2017-01-06T15:29:15.363Z,120
2017-01-06T15:30:24.889Z,112
2017-01-06T15:31:33.602Z,108
2017-01-06T15:32:42.340Z,96
2017-01-06T15:33:51.433Z,92
2017-01-06T15:35:00.980Z,88
2017-01-06T15:36:10.122Z,80
2017-01-06T15:37:18.842Z,72
2017-01-06T15:38:27.931Z,68
2017-01-06T15:39:36.683Z,60
2017-01-06T15:40:45.906Z,56
2017-01-06T15:41:55.020Z,52
2017-01-06T15:43:03.758Z,44
2017-01-06T15:44:12.549Z,44
2017-01-06T15:45:21.674Z,36
2017-01-06T15:46:31.175Z,36
2017-01-06T15:47:40.308Z,32
2017-01-06T15:48:49.404Z,24
2017-01-06T15:49:58.195Z,20
2017-01-06T15:51:07.749Z,20
2017-01-06T15:52:16.927Z,20
2017-01-06T15:53:25.633Z,16
2017-01-06T15:54:34.434Z,12
2017-01-06T15:55:43.656Z,12
2017-01-06T15:56:53.142Z,12
2017-01-06T15:58:01.875Z,8
2017-01-06T15:59:11.384Z,8
2017-01-06T16:00:20.149Z,4
2017-01-06T16:01:29.782Z,4
2017-01-06T16:02:38.536Z,4
2017-01-06T16:03:47.291Z,4
2017-01-06T16:04:56.409Z,4
2017-01-06T16:06:05.535Z,0
2017-01-06T16:07:14.623Z,0
2017-01-06T16:08:23.347Z,0
2017-01-06T16:09:32.449Z,0
2017-01-06T16:10:41.535Z,0
2017-01-06T16:11:51.020Z,0
2017-01-06T16:13:00.257Z,0
2017-01-06T16:14:09.849Z,0
2017-01-06T16:15:18.976Z,0
2017-01-06T16:16:28.849Z,0
2017-01-06T16:17:37.599Z,0
2017-01-06T16:18:47.178Z,0
2017-01-06T16:19:56.284Z,0
2017-01-06T16:21:05.416Z,0
2017-01-06T16:22:14.917Z,0
2017-01-06T16:23:24.479Z,0
2017-01-06T16:24:34.380Z,0